createdAt,value
2023-05-22T00:00:57.468Z,34.17
2023-05-22T00:01:57.471Z,34.24
2023-05-22T00:02:57.689Z,34.16
2023-05-22T00:03:57.440Z,34.09
2023-05-22T00:04:57.490Z,34.27
2023-05-22T00:05:57.425Z,34.09
2023-05-22T00:06:57.412Z,34.03
2023-05-22T00:07:57.419Z,34.48
2023-05-22T00:08:57.406Z,34.35
2023-05-22T00:09:57.389Z,34.00
2023-05-22T00:10:57.380Z,33.95
2023-05-22T00:11:57.382Z,33.91
2023-05-22T00:12:57.383Z,34.23
2023-05-22T00:13:57.369Z,34.22
2023-05-22T00:14:57.361Z,34.07
2023-05-22T00:15:57.369Z,34.40
2023-05-22T00:16:57.474Z,34.23
2023-05-22T00:17:57.542Z,34.23
2023-05-22T00:18:57.648Z,34.36
2023-05-22T00:19:57.569Z,34.23
2023-05-22T00:20:57.615Z,34.24
2023-05-22T00:21:57.664Z,34.30
2023-05-22T00:22:57.709Z,34.30
2023-05-22T00:23:57.752Z,34.30
2023-05-22T00:24:57.811Z,34.60
2023-05-22T00:25:57.848Z,34.23
2023-05-22T00:26:57.898Z,34.36
2023-05-22T00:27:57.956Z,34.31
2023-05-22T00:28:57.989Z,34.11
2023-05-22T00:29:58.026Z,34.25
2023-05-22T00:30:58.062Z,34.18
2023-05-22T00:31:58.095Z,34.27
2023-05-22T00:32:58.181Z,34.19
2023-05-22T00:33:58.191Z,34.21
2023-05-22T00:34:58.203Z,34.35
2023-05-22T00:35:58.284Z,34.29
2023-05-22T00:36:58.255Z,34.41
2023-05-22T00:37:58.317Z,34.36
2023-05-22T00:38:58.370Z,34.45
2023-05-22T00:39:58.362Z,34.41
2023-05-22T00:40:58.401Z,34.45
2023-05-22T00:41:58.484Z,34.27
2023-05-22T00:42:58.494Z,34.19
2023-05-22T00:43:58.518Z,34.50
2023-05-22T00:44:58.571Z,34.22
2023-05-22T00:45:58.597Z,34.53
2023-05-22T00:46:58.642Z,34.58
2023-05-22T00:47:58.679Z,34.19
2023-05-22T00:48:58.708Z,34.36
2023-05-22T00:49:58.733Z,34.61
2023-05-22T00:50:58.748Z,34.31
2023-05-22T00:51:58.794Z,34.38
2023-05-22T00:52:58.819Z,34.28
2023-05-22T00:53:58.886Z,34.37
2023-05-22T00:54:58.900Z,34.44
2023-05-22T00:55:58.952Z,34.62
2023-05-22T00:56:58.958Z,34.38
2023-05-22T00:57:58.986Z,34.47
2023-05-22T00:58:58.989Z,34.57
2023-05-22T00:59:59.017Z,34.36
2023-05-22T01:00:59.045Z,34.38
2023-05-22T01:01:59.098Z,34.45
2023-05-22T01:02:59.237Z,34.37
2023-05-22T01:03:59.219Z,34.42
2023-05-22T01:04:59.153Z,34.40
2023-05-22T01:05:59.173Z,34.31
2023-05-22T01:06:59.182Z,34.18
2023-05-22T01:07:59.191Z,34.16
2023-05-22T01:08:59.216Z,34.50
2023-05-22T01:09:59.255Z,34.53
2023-05-22T01:10:59.292Z,34.27
2023-05-22T01:11:59.331Z,34.37
2023-05-22T01:12:59.353Z,34.14
2023-05-22T01:13:59.384Z,34.35
2023-05-22T01:14:59.429Z,34.42
2023-05-22T01:15:59.513Z,34.43
2023-05-22T01:16:59.488Z,34.51
2023-05-22T01:17:59.575Z,34.35
2023-05-22T01:18:59.678Z,34.19
2023-05-22T01:19:59.570Z,34.24
2023-05-22T01:20:59.583Z,34.36
2023-05-22T01:21:59.610Z,34.43
2023-05-22T01:22:59.637Z,34.23
2023-05-22T01:23:59.653Z,34.28
2023-05-22T01:24:59.664Z,34.47
2023-05-22T01:25:59.692Z,34.63
2023-05-22T01:26:59.738Z,34.71
2023-05-22T01:27:59.733Z,34.31
2023-05-22T01:28:59.740Z,34.47
2023-05-22T01:29:59.760Z,34.44
2023-05-22T01:30:59.763Z,34.43
2023-05-22T01:31:59.807Z,34.72
2023-05-22T01:32:59.934Z,34.36
2023-05-22T01:33:59.882Z,34.43
2023-05-22T01:34:59.873Z,34.57
2023-05-22T01:35:59.995Z,34.37
2023-05-22T01:36:59.962Z,34.21
2023-05-22T01:37:59.989Z,34.38
2023-05-22T01:38:59.990Z,34.44
2023-05-22T01:40:00.020Z,34.33
2023-05-22T01:41:00.008Z,34.41
2023-05-22T01:41:59.987Z,34.52
2023-05-22T01:43:00.008Z,34.47
2023-05-22T01:43:59.992Z,34.43
2023-05-22T01:44:59.974Z,34.41
2023-05-22T01:46:00.013Z,34.56
2023-05-22T01:46:59.969Z,34.44
2023-05-22T01:48:00.047Z,34.44
2023-05-22T01:49:00.004Z,34.51
2023-05-22T01:50:00.038Z,34.44
2023-05-22T01:51:00.020Z,34.46
2023-05-22T01:52:00.043Z,34.45
2023-05-22T01:53:00.047Z,34.78
2023-05-22T01:54:00.124Z,34.60
2023-05-22T01:55:00.120Z,34.51
2023-05-22T01:56:00.150Z,34.47
2023-05-22T01:57:00.181Z,34.50
2023-05-22T01:58:00.194Z,34.51
2023-05-22T01:59:00.175Z,34.42
2023-05-22T02:00:00.190Z,34.52
2023-05-22T02:01:00.869Z,34.39
2023-05-22T02:02:00.271Z,34.46
2023-05-22T02:03:00.430Z,34.42
2023-05-22T02:04:00.255Z,34.61
2023-05-22T02:05:00.233Z,34.56
2023-05-22T02:06:00.237Z,34.53
2023-05-22T02:07:00.218Z,34.47
2023-05-22T02:08:00.229Z,34.39
2023-05-22T02:09:00.264Z,34.47
2023-05-22T02:10:00.264Z,34.57
2023-05-22T02:11:00.304Z,34.46
2023-05-22T02:12:00.301Z,34.56
2023-05-22T02:13:00.314Z,34.58
2023-05-22T02:14:00.341Z,34.61
2023-05-22T02:15:00.359Z,34.65
2023-05-22T02:16:00.453Z,34.52
2023-05-22T02:17:00.427Z,34.51
2023-05-22T02:18:00.503Z,34.43
2023-05-22T02:19:00.513Z,34.66
2023-05-22T02:20:00.487Z,34.69
2023-05-22T02:21:00.489Z,34.48
2023-05-22T02:22:00.525Z,34.55
2023-05-22T02:23:00.573Z,34.47
2023-05-22T02:24:00.582Z,34.61
2023-05-22T02:25:00.590Z,34.48
2023-05-22T02:26:00.609Z,34.64
2023-05-22T02:27:00.647Z,34.64
2023-05-22T02:28:00.671Z,34.46
2023-05-22T02:29:00.673Z,34.66
2023-05-22T02:30:00.669Z,34.57
2023-05-22T02:31:00.724Z,34.90
2023-05-22T02:32:00.663Z,34.48
2023-05-22T02:33:00.738Z,34.51
2023-05-22T02:34:00.709Z,34.52
2023-05-22T02:35:00.712Z,34.70
2023-05-22T02:36:00.749Z,34.46
2023-05-22T02:37:00.765Z,34.66
2023-05-22T02:38:00.809Z,34.56
2023-05-22T02:39:00.838Z,34.60
2023-05-22T02:40:00.904Z,34.47
2023-05-22T02:41:00.938Z,34.44
2023-05-22T02:42:00.993Z,34.57
2023-05-22T02:43:01.033Z,34.58
2023-05-22T02:44:01.104Z,34.64
2023-05-22T02:45:01.159Z,34.52
2023-05-22T02:46:01.382Z,34.57
2023-05-22T02:47:01.273Z,34.61
2023-05-22T02:48:01.298Z,34.67
2023-05-22T02:49:01.317Z,34.49
2023-05-22T02:50:01.365Z,34.31
2023-05-22T02:51:01.422Z,34.51
2023-05-22T02:52:01.500Z,34.51
2023-05-22T02:53:01.530Z,34.37
2023-05-22T02:54:01.596Z,34.54
2023-05-22T02:55:01.627Z,34.56
2023-05-22T02:56:01.674Z,34.68
2023-05-22T02:57:01.725Z,34.44
2023-05-22T02:58:01.781Z,34.44
2023-05-22T02:59:01.827Z,34.56
2023-05-22T03:00:01.864Z,34.71
2023-05-22T03:01:01.883Z,34.80
2023-05-22T03:02:01.997Z,34.50
2023-05-22T03:03:02.024Z,34.53
2023-05-22T03:04:02.032Z,34.56
2023-05-22T03:05:01.941Z,34.58
2023-05-22T03:06:01.927Z,34.82
2023-05-22T03:07:01.936Z,34.71
2023-05-22T03:08:01.945Z,34.65
2023-05-22T03:09:01.939Z,34.53
2023-05-22T03:10:01.938Z,34.65
2023-05-22T03:11:01.955Z,34.63
2023-05-22T03:12:01.959Z,34.66
2023-05-22T03:13:01.974Z,34.52
2023-05-22T03:14:01.970Z,34.70
2023-05-22T03:15:01.980Z,34.66
2023-05-22T03:16:02.024Z,34.59
2023-05-22T03:17:01.977Z,34.93
2023-05-22T03:18:02.016Z,34.68
2023-05-22T03:19:02.005Z,34.76
2023-05-22T03:20:01.976Z,34.68
2023-05-22T03:21:01.976Z,34.75
2023-05-22T03:22:01.975Z,34.69
2023-05-22T03:23:02.023Z,34.55
2023-05-22T03:24:01.992Z,34.58
2023-05-22T03:25:01.996Z,34.58
2023-05-22T03:26:01.994Z,34.83
2023-05-22T03:27:02.009Z,34.66
2023-05-22T03:28:02.028Z,34.64
2023-05-22T03:29:02.072Z,34.55
2023-05-22T03:30:02.050Z,34.68
2023-05-22T03:31:02.027Z,34.71
2023-05-22T03:32:02.023Z,34.77
2023-05-22T03:33:02.107Z,34.79
2023-05-22T03:34:02.159Z,34.71
2023-05-22T03:35:02.028Z,34.72
2023-05-22T03:36:02.034Z,34.74
2023-05-22T03:37:02.036Z,34.57
2023-05-22T03:38:02.045Z,34.70
2023-05-22T03:39:02.074Z,34.68
2023-05-22T03:40:02.074Z,34.80
2023-05-22T03:41:02.084Z,34.66
2023-05-22T03:42:02.084Z,34.65
2023-05-22T03:43:02.113Z,34.71
2023-05-22T03:44:02.110Z,34.66
2023-05-22T03:45:02.125Z,34.62
2023-05-22T03:46:02.151Z,34.72
2023-05-22T03:47:02.113Z,34.60
2023-05-22T03:48:02.176Z,34.54
2023-05-22T03:49:02.176Z,34.68
2023-05-22T03:50:02.180Z,34.62
2023-05-22T03:51:02.194Z,34.70
2023-05-22T03:52:02.220Z,34.74
2023-05-22T03:53:02.185Z,34.70
2023-05-22T03:54:02.197Z,34.77
2023-05-22T03:55:02.180Z,34.75
2023-05-22T03:56:02.236Z,34.64
2023-05-22T03:57:02.210Z,34.57
2023-05-22T03:58:02.202Z,34.76
2023-05-22T03:59:02.194Z,34.62
2023-05-22T04:00:02.195Z,34.41
2023-05-22T04:01:02.177Z,34.41
2023-05-22T04:02:02.217Z,34.65
2023-05-22T04:03:02.256Z,34.70
2023-05-22T04:04:02.172Z,34.72
2023-05-22T04:05:02.231Z,34.65
2023-05-22T04:06:02.172Z,34.71
2023-05-22T04:07:02.154Z,34.68
2023-05-22T04:08:02.179Z,34.78
2023-05-22T04:09:02.165Z,34.68
2023-05-22T04:10:02.166Z,34.62
2023-05-22T04:11:02.150Z,34.77
2023-05-22T04:12:02.169Z,34.63
2023-05-22T04:13:02.161Z,34.70
2023-05-22T04:14:02.152Z,34.73
2023-05-22T04:15:02.183Z,34.62
2023-05-22T04:16:02.241Z,34.74
2023-05-22T04:17:02.176Z,34.62
2023-05-22T04:18:02.209Z,34.57
2023-05-22T04:19:02.193Z,34.73
2023-05-22T04:20:02.181Z,34.47
2023-05-22T04:21:02.170Z,34.74
2023-05-22T04:22:02.180Z,34.86
2023-05-22T04:23:02.186Z,34.57
2023-05-22T04:24:02.196Z,34.61
2023-05-22T04:25:02.191Z,34.60
2023-05-22T04:26:02.186Z,34.58
2023-05-22T04:27:02.205Z,34.56
2023-05-22T04:28:02.209Z,34.65
2023-05-22T04:29:02.243Z,34.52
2023-05-22T04:30:02.260Z,34.52
2023-05-22T04:31:02.275Z,34.59
2023-05-22T04:32:02.246Z,34.74
2023-05-22T04:33:02.268Z,34.46
2023-05-22T04:34:02.264Z,34.33
2023-05-22T04:35:02.291Z,34.39
2023-05-22T04:36:02.324Z,34.63
2023-05-22T04:37:02.283Z,34.72
2023-05-22T04:38:02.374Z,34.48
2023-05-22T04:39:02.443Z,34.72
2023-05-22T04:40:02.390Z,34.48
2023-05-22T04:41:02.420Z,34.32
2023-05-22T04:42:02.411Z,34.16
2023-05-22T04:43:02.456Z,34.11
2023-05-22T04:44:02.483Z,34.06
2023-05-22T04:45:02.527Z,33.99
2023-05-22T04:46:02.556Z,34.00
2023-05-22T04:47:02.832Z,33.96
2023-05-22T04:48:02.952Z,33.93
2023-05-22T04:49:02.693Z,33.95
2023-05-22T04:50:02.732Z,33.92
2023-05-22T04:51:02.798Z,33.91
2023-05-22T04:52:02.863Z,33.81
2023-05-22T04:53:02.922Z,33.83
2023-05-22T04:54:02.976Z,33.89
2023-05-22T04:55:05.205Z,33.98
2023-05-22T04:56:03.041Z,33.87
2023-05-22T04:57:03.038Z,33.86
2023-05-22T04:58:03.068Z,33.84
2023-05-22T04:59:02.997Z,33.89
2023-05-22T05:00:03.026Z,33.87
2023-05-22T05:01:03.013Z,34.21
2023-05-22T05:02:02.973Z,33.98
2023-05-22T05:03:03.207Z,33.94
2023-05-22T05:04:03.113Z,33.92
2023-05-22T05:05:02.952Z,34.36
2023-05-22T05:06:02.948Z,34.16
2023-05-22T05:07:02.937Z,34.09
2023-05-22T05:08:02.944Z,33.82
2023-05-22T05:09:02.922Z,33.89
2023-05-22T05:10:02.940Z,33.86
2023-05-22T05:11:02.910Z,33.72
2023-05-22T05:12:02.919Z,33.73
2023-05-22T05:13:02.902Z,33.65
2023-05-22T05:14:02.898Z,33.73
2023-05-22T05:15:02.882Z,33.67
2023-05-22T05:16:02.900Z,33.64
2023-05-22T05:17:02.947Z,33.41
2023-05-22T05:18:02.908Z,33.53
2023-05-22T05:19:02.925Z,33.39
2023-05-22T05:20:02.847Z,33.33
2023-05-22T05:21:02.834Z,33.44
2023-05-22T05:22:02.843Z,33.45
2023-05-22T05:23:02.832Z,33.37
2023-05-22T05:24:02.814Z,33.27
2023-05-22T05:25:02.874Z,33.27
2023-05-22T05:26:02.809Z,33.27
2023-05-22T05:27:02.798Z,33.26
2023-05-22T05:28:02.820Z,33.30
2023-05-22T05:29:02.821Z,33.21
2023-05-22T05:30:02.870Z,33.19
2023-05-22T05:31:02.773Z,33.20
2023-05-22T05:32:02.778Z,33.23
2023-05-22T05:33:02.837Z,33.28
2023-05-22T05:34:02.768Z,33.27
2023-05-22T05:35:02.761Z,33.17
2023-05-22T05:36:02.837Z,33.27
2023-05-22T05:37:02.961Z,33.16
2023-05-22T05:38:02.863Z,33.78
2023-05-22T05:39:02.932Z,33.99
2023-05-22T05:40:02.915Z,34.21
2023-05-22T05:41:02.973Z,34.95
2023-05-22T05:42:02.964Z,35.27
2023-05-22T05:43:02.988Z,35.65
2023-05-22T05:44:03.008Z,36.19
2023-05-22T05:45:03.016Z,36.71
2023-05-22T05:46:03.099Z,36.73
2023-05-22T05:47:03.054Z,36.54
2023-05-22T05:48:03.107Z,36.79
2023-05-22T05:49:03.067Z,36.94
2023-05-22T05:50:03.098Z,36.89
2023-05-22T05:51:03.099Z,37.20
2023-05-22T05:52:03.108Z,37.31
2023-05-22T05:53:03.139Z,37.77
2023-05-22T05:54:03.153Z,37.66
2023-05-22T05:55:03.318Z,37.78
2023-05-22T05:56:03.190Z,37.97
2023-05-22T05:57:03.269Z,38.18
2023-05-22T05:58:03.185Z,38.29
2023-05-22T05:59:03.203Z,38.62
2023-05-22T06:00:03.244Z,38.59
2023-05-22T06:01:03.158Z,38.55
2023-05-22T06:02:03.144Z,38.96
2023-05-22T06:03:03.218Z,39.03
2023-05-22T06:04:03.261Z,39.21
2023-05-22T06:05:03.516Z,39.13
2023-05-22T06:06:03.461Z,39.34
2023-05-22T06:07:03.139Z,39.10
2023-05-22T06:08:03.150Z,39.19
2023-05-22T06:09:03.138Z,39.19
2023-05-22T06:10:03.127Z,39.26
2023-05-22T06:11:03.136Z,39.36
2023-05-22T06:12:03.125Z,39.22
2023-05-22T06:13:03.193Z,39.45
2023-05-22T06:14:03.144Z,39.70
2023-05-22T06:15:03.207Z,39.56
2023-05-22T06:16:06.595Z,39.81
2023-05-22T06:17:03.179Z,39.73
2023-05-22T06:18:03.184Z,39.73
2023-05-22T06:19:03.122Z,39.73
2023-05-22T06:20:03.218Z,39.75
2023-05-22T06:21:03.139Z,39.81
2023-05-22T06:22:03.114Z,39.83
2023-05-22T06:23:03.173Z,40.03
2023-05-22T06:24:03.062Z,39.99
2023-05-22T06:25:03.167Z,40.18
2023-05-22T06:26:03.079Z,40.13
2023-05-22T06:27:03.150Z,40.24
2023-05-22T06:28:03.176Z,40.27
2023-05-22T06:29:03.012Z,40.15
2023-05-22T06:30:04.538Z,40.12
2023-05-22T06:31:03.087Z,40.20
2023-05-22T06:32:03.115Z,40.12
2023-05-22T06:33:03.113Z,40.33
2023-05-22T06:34:03.096Z,40.35
2023-05-22T06:35:03.006Z,40.25
2023-05-22T06:36:03.012Z,40.30
2023-05-22T06:37:02.963Z,40.49
2023-05-22T06:38:02.949Z,41.03
2023-05-22T06:39:02.945Z,40.41
2023-05-22T06:40:02.970Z,40.62
2023-05-22T06:41:02.987Z,40.85
2023-05-22T06:42:02.984Z,40.99
2023-05-22T06:43:03.001Z,40.73
2023-05-22T06:44:03.987Z,40.25
2023-05-22T06:45:02.936Z,39.97
2023-05-22T06:46:02.972Z,40.14
2023-05-22T06:47:02.919Z,40.18
2023-05-22T06:48:02.970Z,40.19
2023-05-22T06:49:02.896Z,40.33
2023-05-22T06:50:02.892Z,40.29
2023-05-22T06:51:02.873Z,40.41
2023-05-22T06:52:05.187Z,40.58
2023-05-22T06:53:03.422Z,40.75
2023-05-22T06:54:03.013Z,40.79
2023-05-22T06:55:02.984Z,40.87
2023-05-22T06:56:02.971Z,40.88
2023-05-22T06:57:02.997Z,40.97
2023-05-22T06:58:02.974Z,41.03
2023-05-22T06:59:04.802Z,41.18
2023-05-22T07:00:02.960Z,41.06
2023-05-22T07:01:02.975Z,41.22
2023-05-22T07:02:02.990Z,41.42
2023-05-22T07:03:02.976Z,41.28
2023-05-22T07:04:02.920Z,41.23
2023-05-22T07:05:02.947Z,41.68
2023-05-22T07:06:02.933Z,41.75
2023-05-22T07:07:02.904Z,41.81
2023-05-22T07:08:02.929Z,41.58
2023-05-22T07:09:02.996Z,41.68
2023-05-22T07:10:02.903Z,41.55
2023-05-22T07:11:02.947Z,41.68
2023-05-22T07:12:02.900Z,41.69
2023-05-22T07:13:02.870Z,41.70
2023-05-22T07:14:02.911Z,41.69
2023-05-22T07:15:02.880Z,42.03
2023-05-22T07:16:02.860Z,41.89
2023-05-22T07:17:02.842Z,41.87
2023-05-22T07:18:02.897Z,41.78
2023-05-22T07:19:02.868Z,42.03
2023-05-22T07:20:02.862Z,41.90
2023-05-22T07:21:02.882Z,42.03
2023-05-22T07:22:02.820Z,42.11
2023-05-22T07:23:03.009Z,41.83
2023-05-22T07:24:02.824Z,42.19
2023-05-22T07:25:02.787Z,42.35
2023-05-22T07:26:02.778Z,42.26
2023-05-22T07:27:02.773Z,42.34
2023-05-22T07:28:02.766Z,42.44
2023-05-22T07:29:02.757Z,42.44
2023-05-22T07:30:02.757Z,42.37
2023-05-22T07:31:02.733Z,42.33
2023-05-22T07:32:02.751Z,42.29
2023-05-22T07:33:02.764Z,42.20
2023-05-22T07:34:02.766Z,42.14
2023-05-22T07:35:02.701Z,42.30
2023-05-22T07:36:02.723Z,41.30
2023-05-22T07:37:02.707Z,40.66
2023-05-22T07:38:02.959Z,39.96
2023-05-22T07:39:02.719Z,39.27
2023-05-22T07:40:02.696Z,39.40
2023-05-22T07:41:02.663Z,39.14
2023-05-22T07:42:02.694Z,38.39
2023-05-22T07:43:03.067Z,38.07
2023-05-22T07:44:02.680Z,37.98
2023-05-22T07:45:02.703Z,37.88
2023-05-22T07:46:02.726Z,37.73
2023-05-22T07:47:02.752Z,37.71
2023-05-22T07:48:02.856Z,37.52
2023-05-22T07:49:02.879Z,37.66
2023-05-22T07:50:02.934Z,37.90
2023-05-22T07:51:02.953Z,37.40
2023-05-22T07:52:03.036Z,37.53
2023-05-22T07:53:03.062Z,37.49
2023-05-22T07:54:03.103Z,37.65
2023-05-22T07:55:03.164Z,37.65
2023-05-22T07:56:03.200Z,37.68
2023-05-22T07:57:03.289Z,37.75
2023-05-22T07:58:03.297Z,37.73
2023-05-22T07:59:03.521Z,37.73
2023-05-22T08:00:03.402Z,37.82
2023-05-22T08:01:03.485Z,37.84
2023-05-22T08:02:03.519Z,37.60
2023-05-22T08:03:03.770Z,37.49
2023-05-22T08:04:03.742Z,37.58
2023-05-22T08:05:03.643Z,37.33
2023-05-22T08:06:03.679Z,37.44
2023-05-22T08:07:03.752Z,37.36
2023-05-22T08:08:03.802Z,37.20
2023-05-22T08:09:03.826Z,37.56
2023-05-22T08:10:03.866Z,37.33
2023-05-22T08:11:04.727Z,37.46
2023-05-22T08:12:03.982Z,37.45
2023-05-22T08:13:03.970Z,37.44
2023-05-22T08:14:03.963Z,37.39
2023-05-22T08:15:04.000Z,37.34
2023-05-22T08:16:03.940Z,37.44
2023-05-22T08:17:03.976Z,37.36
2023-05-22T08:18:04.001Z,37.46
2023-05-22T08:19:04.000Z,37.17
2023-05-22T08:20:04.078Z,37.24
2023-05-22T08:21:03.900Z,37.50
2023-05-22T08:22:03.912Z,37.49
2023-05-22T08:23:03.891Z,37.27
2023-05-22T08:24:03.890Z,37.34
2023-05-22T08:25:03.893Z,37.40
2023-05-22T08:26:03.879Z,37.44
2023-05-22T08:27:03.910Z,35.55
2023-05-22T08:28:03.988Z,35.42
2023-05-22T08:29:03.958Z,34.94
2023-05-22T08:30:03.849Z,34.79
2023-05-22T08:31:04.191Z,35.14
2023-05-22T08:32:03.857Z,35.34
2023-05-22T08:33:03.915Z,35.13
2023-05-22T08:34:03.841Z,35.18
2023-05-22T08:35:03.835Z,34.90
2023-05-22T08:36:03.805Z,34.63
2023-05-22T08:37:03.814Z,34.54
2023-05-22T08:38:03.971Z,34.63
2023-05-22T08:39:03.960Z,34.39
2023-05-22T08:40:03.785Z,34.16
2023-05-22T08:41:03.806Z,34.12
2023-05-22T08:42:03.787Z,33.96
2023-05-22T08:43:03.771Z,34.16
2023-05-22T08:44:03.785Z,33.54
2023-05-22T08:45:03.753Z,34.53
2023-05-22T08:46:03.735Z,34.70
2023-05-22T08:47:03.916Z,34.87
2023-05-22T08:48:04.054Z,35.15
2023-05-22T08:49:03.964Z,35.28
2023-05-22T08:50:03.720Z,35.39
2023-05-22T08:51:03.718Z,35.23
2023-05-22T08:52:03.700Z,35.31
2023-05-22T08:53:03.713Z,35.44
2023-05-22T08:54:03.975Z,35.61
2023-05-22T08:55:03.764Z,35.79
2023-05-22T08:56:03.795Z,35.42
2023-05-22T08:57:03.800Z,34.29
2023-05-22T08:58:03.850Z,34.31
2023-05-22T08:59:03.863Z,34.70
2023-05-22T09:00:03.945Z,34.11
2023-05-22T09:01:03.971Z,34.06
2023-05-22T09:02:06.457Z,33.56
2023-05-22T09:03:04.011Z,33.24
2023-05-22T09:04:03.962Z,33.51
2023-05-22T09:05:03.954Z,32.75
2023-05-22T09:06:03.900Z,32.19
2023-05-22T09:07:03.899Z,31.85
2023-05-22T09:08:15.916Z,31.66
2023-05-22T09:09:04.889Z,31.55
2023-05-22T09:10:03.877Z,31.40
2023-05-22T09:11:03.875Z,30.87
2023-05-22T09:12:03.865Z,31.31
2023-05-22T09:13:03.879Z,31.05
2023-05-22T09:14:03.857Z,31.00
2023-05-22T09:15:03.873Z,30.87
2023-05-22T09:16:03.834Z,30.55
2023-05-22T09:17:03.892Z,30.46
2023-05-22T09:18:03.880Z,30.35
2023-05-22T09:19:03.878Z,30.38
2023-05-22T09:20:03.808Z,30.59
2023-05-22T09:21:08.943Z,30.28
2023-05-22T09:22:04.821Z,30.35
2023-05-22T09:23:03.824Z,29.87
2023-05-22T09:24:03.811Z,29.92
2023-05-22T09:25:03.912Z,29.87
2023-05-22T09:26:03.778Z,30.00
2023-05-22T09:27:03.777Z,29.64
2023-05-22T09:28:03.786Z,29.61
2023-05-22T09:29:03.755Z,29.42
2023-05-22T09:30:03.756Z,29.57
2023-05-22T09:31:04.465Z,29.60
2023-05-22T09:32:03.758Z,29.68
2023-05-22T09:33:04.081Z,29.75
2023-05-22T09:34:04.011Z,29.65
2023-05-22T09:35:03.941Z,29.54
2023-05-22T09:36:03.722Z,29.48
2023-05-22T09:37:03.704Z,29.56
2023-05-22T09:38:04.000Z,29.32
2023-05-22T09:39:03.708Z,29.43
2023-05-22T09:40:03.697Z,29.68
2023-05-22T09:41:03.680Z,29.79
2023-05-22T09:42:03.659Z,29.85
2023-05-22T09:43:03.986Z,29.96
2023-05-22T09:44:03.990Z,29.96
2023-05-22T09:45:03.689Z,29.93
2023-05-22T09:46:03.684Z,29.66
2023-05-22T09:47:03.643Z,29.56
2023-05-22T09:48:03.680Z,29.59
2023-05-22T09:49:03.994Z,29.76
2023-05-22T09:50:03.623Z,29.70
2023-05-22T09:51:03.616Z,29.67
2023-05-22T09:52:03.595Z,29.77
2023-05-22T09:53:03.610Z,29.94
2023-05-22T09:54:03.700Z,30.08
2023-05-22T09:55:03.594Z,29.91
2023-05-22T09:56:03.650Z,29.85
2023-05-22T09:57:03.637Z,29.59
2023-05-22T09:58:03.688Z,29.68
2023-05-22T09:59:03.676Z,29.81
2023-05-22T10:00:03.703Z,30.06
2023-05-22T10:01:03.719Z,30.18
2023-05-22T10:02:03.819Z,30.03
2023-05-22T10:03:03.809Z,29.79
2023-05-22T10:04:03.922Z,29.40
2023-05-22T10:05:03.808Z,29.59
2023-05-22T10:06:03.824Z,29.42
2023-05-22T10:07:03.864Z,29.60
2023-05-22T10:08:03.887Z,29.66
2023-05-22T10:09:03.923Z,29.54
2023-05-22T10:10:03.948Z,29.77
2023-05-22T10:11:03.974Z,29.94
2023-05-22T10:12:04.002Z,29.90
2023-05-22T10:13:04.036Z,29.64
2023-05-22T10:14:04.083Z,29.43
2023-05-22T10:15:04.070Z,29.07
2023-05-22T10:16:04.149Z,29.65
2023-05-22T10:17:04.147Z,29.24
2023-05-22T10:18:04.204Z,29.13
2023-05-22T10:19:04.269Z,30.04
2023-05-22T10:20:04.239Z,30.85
2023-05-22T10:21:04.256Z,31.87
2023-05-22T10:22:04.285Z,32.19
2023-05-22T10:23:04.403Z,33.42
2023-05-22T10:24:04.513Z,33.45
2023-05-22T10:25:04.518Z,33.75
2023-05-22T10:26:05.018Z,33.66
2023-05-22T10:27:04.419Z,34.05
2023-05-22T10:28:04.454Z,34.55
2023-05-22T10:29:04.463Z,34.78
2023-05-22T10:30:04.563Z,34.59
2023-05-22T10:31:04.536Z,34.36
2023-05-22T10:32:04.530Z,34.23
2023-05-22T10:33:04.662Z,34.19
2023-05-22T10:34:04.614Z,34.20
2023-05-22T10:35:05.053Z,34.23
2023-05-22T10:36:04.634Z,34.10
2023-05-22T10:37:16.051Z,33.90
2023-05-22T10:38:05.643Z,33.80
2023-05-22T10:39:04.740Z,33.82
2023-05-22T10:40:04.627Z,33.80
2023-05-22T10:41:04.622Z,33.70
2023-05-22T10:42:04.630Z,33.69
2023-05-22T10:43:04.628Z,33.59
2023-05-22T10:44:04.599Z,33.60
2023-05-22T10:45:04.613Z,33.60
2023-05-22T10:46:04.672Z,33.60
2023-05-22T10:47:04.604Z,33.50
2023-05-22T10:48:04.660Z,33.46
2023-05-22T10:49:04.600Z,33.54
2023-05-22T10:50:04.580Z,33.51
2023-05-22T10:51:04.559Z,33.51
2023-05-22T10:52:04.560Z,33.56
2023-05-22T10:53:04.543Z,33.52
2023-05-22T10:54:04.559Z,33.62
2023-05-22T10:55:05.077Z,33.60
2023-05-22T10:56:04.561Z,33.59
2023-05-22T10:57:04.604Z,33.53
2023-05-22T10:58:05.058Z,33.52
2023-05-22T10:59:04.663Z,33.52
2023-05-22T11:00:04.686Z,33.56
2023-05-22T11:01:04.716Z,33.60
2023-05-22T11:02:04.788Z,33.62
2023-05-22T11:03:16.585Z,33.44
2023-05-22T11:04:05.783Z,33.54
2023-05-22T11:05:04.876Z,33.41
2023-05-22T11:06:04.767Z,33.43
2023-05-22T11:07:04.754Z,33.51
2023-05-22T11:08:04.757Z,33.41
2023-05-22T11:09:04.763Z,33.47
2023-05-22T11:10:04.729Z,33.41
2023-05-22T11:11:04.818Z,33.43
2023-05-22T11:12:04.767Z,33.52
2023-05-22T11:13:04.765Z,33.49
2023-05-22T11:14:04.701Z,33.40
2023-05-22T11:15:04.697Z,33.38
2023-05-22T11:16:04.712Z,33.41
2023-05-22T11:17:04.805Z,33.51
2023-05-22T11:18:04.876Z,33.34
2023-05-22T11:19:18.631Z,33.38
2023-05-22T11:20:06.112Z,33.52
2023-05-22T11:21:04.830Z,33.44
2023-05-22T11:22:04.903Z,33.42
2023-05-22T11:23:05.064Z,33.21
2023-05-22T11:24:04.796Z,32.97
2023-05-22T11:25:08.020Z,33.30
2023-05-22T11:26:04.795Z,33.32
2023-05-22T11:27:04.927Z,33.44
2023-05-22T11:28:04.988Z,33.40
2023-05-22T11:29:04.796Z,33.33
2023-05-22T11:30:04.756Z,33.33
2023-05-22T11:31:04.860Z,33.36
2023-05-22T11:32:04.739Z,33.38
2023-05-22T11:33:04.823Z,33.29
2023-05-22T11:34:04.731Z,33.30
2023-05-22T11:35:04.787Z,33.22
2023-05-22T11:36:04.719Z,33.23
2023-05-22T11:37:04.704Z,33.18
2023-05-22T11:38:04.743Z,33.18
2023-05-22T11:39:04.703Z,33.32
2023-05-22T11:40:04.685Z,33.33
2023-05-22T11:41:04.674Z,33.33
2023-05-22T11:42:04.679Z,33.20
2023-05-22T11:43:04.796Z,33.19
2023-05-22T11:44:04.658Z,33.29
2023-05-22T11:45:04.651Z,33.29
2023-05-22T11:46:04.679Z,33.29
2023-05-22T11:47:04.632Z,33.34
2023-05-22T11:48:04.710Z,33.31
2023-05-22T11:49:04.631Z,33.11
2023-05-22T11:50:04.640Z,33.20
2023-05-22T11:51:04.621Z,33.18
2023-05-22T11:52:04.598Z,33.11
2023-05-22T11:53:04.596Z,33.18
2023-05-22T11:54:04.611Z,33.07
2023-05-22T11:55:04.604Z,32.96
2023-05-22T11:56:04.568Z,32.97
2023-05-22T11:57:04.573Z,32.91
2023-05-22T11:58:04.566Z,33.04
2023-05-22T11:59:04.651Z,33.00
2023-05-22T12:00:04.588Z,33.10
2023-05-22T12:01:04.537Z,33.00
2023-05-22T12:02:04.558Z,33.07
2023-05-22T12:03:04.656Z,32.90
2023-05-22T12:04:04.733Z,33.02
2023-05-22T12:05:04.683Z,33.03
2023-05-22T12:06:04.747Z,32.96
2023-05-22T12:07:04.783Z,32.96
2023-05-22T12:08:04.840Z,32.84
2023-05-22T12:09:04.891Z,32.75
2023-05-22T12:10:04.915Z,32.77
2023-05-22T12:11:04.957Z,32.90
2023-05-22T12:12:05.025Z,32.84
2023-05-22T12:13:05.048Z,32.90
2023-05-22T12:14:05.116Z,32.80
2023-05-22T12:15:05.264Z,32.97
2023-05-22T12:16:05.246Z,32.84
2023-05-22T12:17:05.235Z,32.84
2023-05-22T12:18:05.341Z,32.72
2023-05-22T12:19:05.375Z,32.59
2023-05-22T12:20:05.384Z,32.65
2023-05-22T12:21:05.434Z,32.66
2023-05-22T12:22:05.472Z,32.65
2023-05-22T12:23:05.519Z,32.73
2023-05-22T12:24:05.575Z,32.65
2023-05-22T12:25:05.610Z,32.72
2023-05-22T12:26:05.669Z,32.60
2023-05-22T12:27:05.758Z,32.69
2023-05-22T12:28:05.777Z,32.62
2023-05-22T12:29:05.828Z,32.66
2023-05-22T12:30:05.923Z,32.57
2023-05-22T12:31:06.017Z,32.60
2023-05-22T12:32:06.006Z,32.49
2023-05-22T12:33:06.020Z,32.57
2023-05-22T12:34:06.055Z,32.50
2023-05-22T12:35:06.115Z,32.53
2023-05-22T12:36:06.182Z,32.53
2023-05-22T12:37:06.214Z,32.54
2023-05-22T12:38:06.261Z,32.46
2023-05-22T12:39:06.380Z,32.51
2023-05-22T12:40:06.355Z,32.56
2023-05-22T12:41:06.407Z,32.43
2023-05-22T12:42:06.461Z,32.44
2023-05-22T12:43:06.519Z,32.49
2023-05-22T12:44:06.563Z,32.60
2023-05-22T12:45:07.562Z,32.60
2023-05-22T12:46:06.663Z,32.57
2023-05-22T12:47:06.759Z,32.47
2023-05-22T12:48:06.875Z,32.50
2023-05-22T12:49:06.866Z,32.41
2023-05-22T12:50:06.862Z,32.44
2023-05-22T12:51:06.923Z,32.50
2023-05-22T12:52:06.973Z,32.53
2023-05-22T12:53:07.030Z,32.53